Time;durP1;ratioP1;P1;durP2;ratioP2;P2;SDS_P1;SDS_P2;PMS_P1;PMS_P2;Temp;Humidity;BMP_temperature;BMP_pressure;BME280_temperature;BME280_humidity;BME280_pressure;Samples;Min_cycle;Max_cycle;Signal;HPM_P1;HPM_P2
2021/09/03 00:01:01;;;;;;;8.03;7.23;;;14.60;99.90;;;;;;5011659;28;20222;-83
2021/09/03 00:03:27;;;;;;;8.40;6.83;;;14.30;99.90;;;;;;5011001;28;20293;-82
2021/09/03 00:05:52;;;;;;;8.10;7.30;;;14.30;99.90;;;;;;5009239;28;20470;-82
2021/09/03 00:08:18;;;;;;;7.40;6.67;;;14.30;99.90;;;;;;5012622;28;20437;-82
2021/09/03 00:10:44;;;;;;;8.47;7.67;;;14.00;99.90;;;;;;5012259;28;20232;-82
2021/09/03 00:13:09;;;;;;;8.03;7.23;;;14.20;99.90;;;;;;5009186;28;20205;-82
2021/09/03 00:15:35;;;;;;;7.67;6.87;;;14.20;99.90;;;;;;5011748;28;20183;-82
2021/09/03 00:18:02;;;;;;;7.70;7.00;;;14.20;99.90;;;;;;5011535;28;20241;-82
2021/09/03 00:20:28;;;;;;;8.20;7.40;;;13.90;99.90;;;;;;5009928;28;20225;-83
2021/09/03 00:22:54;;;;;;;8.32;7.53;;;13.60;99.90;;;;;;5028456;28;20187;-82
2021/09/03 00:25:20;;;;;;;8.30;7.50;;;13.90;99.90;;;;;;5013589;28;20187;-83
2021/09/03 00:27:45;;;;;;;7.70;6.87;;;13.90;99.90;;;;;;5011766;28;20190;-82
2021/09/03 00:30:12;;;;;;;8.00;7.20;;;13.70;99.90;;;;;;5011360;28;20195;-82
2021/09/03 00:32:38;;;;;;;9.35;7.10;;;14.00;99.90;;;;;;5012628;28;20198;-82
2021/09/03 00:35:04;;;;;;;8.48;7.65;;;13.50;99.90;;;;;;5012670;28;20182;-83
2021/09/03 00:37:30;;;;;;;8.80;7.90;;;14.00;99.90;;;;;;5017887;28;20275;-82
2021/09/03 00:39:56;;;;;;;8.23;7.30;;;14.00;99.90;;;;;;5012170;28;20239;-82
2021/09/03 00:42:22;;;;;;;9.37;7.50;;;13.90;99.90;;;;;;5013949;28;20206;-82
2021/09/03 00:44:47;;;;;;;12.23;8.10;;;13.80;99.90;;;;;;5011232;28;20194;-82
2021/09/03 00:47:13;;;;;;;9.47;7.53;;;13.50;99.90;;;;;;5011788;28;20444;-82
2021/09/03 00:49:38;;;;;;;7.50;6.80;;;13.80;99.90;;;;;;5008095;28;20564;-82
2021/09/03 00:52:06;;;;;;;7.77;6.93;;;13.80;99.90;;;;;;5017337;28;20190;-82
2021/09/03 00:54:33;;;;;;;7.80;7.00;;;13.70;99.90;;;;;;5019370;28;20796;-82
2021/09/03 00:56:59;;;;;;;8.07;7.25;;;13.60;99.90;;;;;;5010586;28;20282;-82
2021/09/03 00:59:24;;;;;;;8.20;7.38;;;14.30;99.90;;;;;;5004188;28;20211;-82
2021/09/03 01:01:50;;;;;;;7.60;6.90;;;13.30;99.90;;;;;;5011170;28;20787;-82
2021/09/03 01:04:15;;;;;;;8.10;7.30;;;13.30;99.90;;;;;;5016519;28;20186;-81
2021/09/03 01:06:41;;;;;;;8.20;6.90;;;13.60;99.90;;;;;;5021482;28;20197;-82
2021/09/03 01:09:07;;;;;;;9.33;7.77;;;13.80;99.90;;;;;;5012348;28;20529;-82
2021/09/03 01:11:32;;;;;;;9.77;7.40;;;13.40;99.90;;;;;;5006479;28;20430;-81
2021/09/03 01:13:58;;;;;;;9.40;8.40;;;13.60;99.90;;;;;;5009087;28;20206;-82
2021/09/03 01:16:24;;;;;;;8.07;7.07;;;13.60;99.90;;;;;;5010825;28;20200;-83
2021/09/03 01:18:51;;;;;;;8.00;7.20;;;13.10;99.90;;;;;;5008680;28;20555;-82
2021/09/03 01:21:17;;;;;;;8.00;7.20;;;13.40;99.90;;;;;;5002909;28;20261;-82
2021/09/03 01:23:43;;;;;;;8.63;7.00;;;13.80;99.90;;;;;;5010404;28;20214;-82
2021/09/03 01:26:08;;;;;;;8.40;7.50;;;13.50;99.90;;;;;;5019372;28;20620;-82
2021/09/03 01:28:34;;;;;;;7.70;7.00;;;13.10;99.90;;;;;;5008255;28;20562;-82
2021/09/03 01:30:59;;;;;;;7.20;6.50;;;13.40;99.90;;;;;;5010177;28;20570;-82
2021/09/03 01:33:25;;;;;;;9.00;7.10;;;13.20;99.90;;;;;;5010809;28;20729;-83
2021/09/03 01:35:50;;;;;;;8.43;7.03;;;13.20;99.90;;;;;;5007017;28;20186;-83
2021/09/03 01:38:16;;;;;;;8.40;7.60;;;13.00;99.90;;;;;;5007204;28;20666;-82
2021/09/03 01:40:43;;;;;;;7.78;6.97;;;13.10;99.90;;;;;;5002350;28;20293;-82
2021/09/03 01:43:08;;;;;;;7.93;7.00;;;13.40;99.90;;;;;;5006237;28;20186;-82
2021/09/03 01:45:34;;;;;;;9.50;8.33;;;13.00;99.90;;;;;;5009910;28;20182;-82
2021/09/03 01:47:59;;;;;;;9.17;8.23;;;13.40;99.90;;;;;;5009549;28;20190;-82
2021/09/03 01:50:25;;;;;;;7.87;7.07;;;13.20;99.90;;;;;;5005998;28;20340;-82
2021/09/03 01:52:50;;;;;;;8.53;7.63;;;12.80;99.90;;;;;;5009756;28;20285;-81
2021/09/03 01:55:16;;;;;;;7.70;6.80;;;13.30;99.90;;;;;;5011934;28;20191;-82
2021/09/03 01:57:42;;;;;;;7.83;7.10;;;13.60;99.90;;;;;;5008925;28;20220;-82
2021/09/03 02:00:08;;;;;;;8.07;7.27;;;13.10;99.90;;;;;;5008679;28;20655;-82
2021/09/03 02:02:34;;;;;;;9.30;8.00;;;13.20;99.90;;;;;;5011577;28;20180;-83
2021/09/03 02:04:59;;;;;;;8.37;7.50;;;12.90;99.90;;;;;;5009237;28;20542;-82
2021/09/03 02:07:25;;;;;;;7.60;6.67;;;12.70;99.90;;;;;;5010173;28;20210;-82
2021/09/03 02:09:51;;;;;;;13.87;7.50;;;12.70;99.90;;;;;;5009665;28;20887;-82
2021/09/03 02:12:16;;;;;;;7.90;7.20;;;12.70;99.90;;;;;;5010184;28;20654;-82
2021/09/03 02:14:43;;;;;;;7.87;7.07;;;13.00;99.90;;;;;;5009592;28;20198;-82
2021/09/03 02:17:10;;;;;;;8.80;7.60;;;12.70;99.90;;;;;;5007501;28;20309;-82
2021/09/03 02:19:35;;;;;;;8.85;7.28;;;12.90;99.90;;;;;;5008168;28;20206;-82
2021/09/03 02:22:01;;;;;;;8.10;7.30;;;12.70;99.90;;;;;;5004182;28;20212;-82
2021/09/03 02:24:27;;;;;;;7.13;6.43;;;13.10;99.90;;;;;;5011157;28;20203;-82
2021/09/03 02:26:52;;;;;;;10.70;6.77;;;12.80;99.90;;;;;;5013328;28;20277;-82
2021/09/03 02:29:18;;;;;;;8.67;6.90;;;13.00;99.90;;;;;;5010932;28;20689;-82
2021/09/03 02:31:43;;;;;;;7.40;6.70;;;13.10;99.90;;;;;;5009842;28;20187;-82
2021/09/03 02:34:09;;;;;;;8.63;7.00;;;12.50;99.90;;;;;;5009163;28;20217;-82
2021/09/03 02:36:34;;;;;;;10.70;8.30;;;12.50;99.90;;;;;;5008467;28;20197;-82
2021/09/03 02:39:00;;;;;;;7.57;6.80;;;13.00;99.90;;;;;;5008258;28;20252;-82
2021/09/03 02:41:25;;;;;;;8.63;7.83;;;13.30;99.90;;;;;;5006700;28;20257;-82
2021/09/03 02:43:52;;;;;;;8.30;7.47;;;13.00;99.90;;;;;;5004033;28;20308;-81
2021/09/03 02:46:17;;;;;;;7.53;6.70;;;12.70;99.90;;;;;;5007705;28;20185;-80
2021/09/03 02:48:43;;;;;;;7.80;6.83;;;12.60;99.90;;;;;;5008063;28;20186;-81
2021/09/03 02:51:08;;;;;;;9.50;7.40;;;12.60;99.90;;;;;;5017329;28;20579;-81
2021/09/03 02:53:34;;;;;;;9.77;7.30;;;12.50;99.90;;;;;;5010242;28;20224;-80
2021/09/03 02:55:59;;;;;;;8.20;7.33;;;13.20;99.90;;;;;;5008833;28;20188;-81
2021/09/03 02:58:25;;;;;;;7.90;7.10;;;12.90;99.90;;;;;;5006864;28;20201;-81
2021/09/03 03:00:50;;;;;;;8.60;7.80;;;12.80;99.90;;;;;;5008654;28;20244;-80
2021/09/03 03:03:16;;;;;;;7.87;7.07;;;12.70;99.90;;;;;;5009012;28;20186;-81
2021/09/03 03:05:42;;;;;;;9.77;7.37;;;12.70;99.90;;;;;;5008748;28;20199;-81
2021/09/03 03:08:07;;;;;;;7.23;6.50;;;12.40;99.90;;;;;;5007271;28;20573;-81
2021/09/03 03:10:33;;;;;;;7.90;7.10;;;12.70;99.90;;;;;;5008846;28;20702;-81
2021/09/03 03:12:59;;;;;;;8.60;7.80;;;12.80;99.90;;;;;;5008394;28;20552;-82
2021/09/03 03:15:25;;;;;;;8.45;7.60;;;12.20;99.90;;;;;;5008450;28;20202;-82
2021/09/03 03:17:51;;;;;;;8.00;7.20;;;12.70;99.90;;;;;;5008240;28;20186;-82
2021/09/03 03:20:17;;;;;;;7.85;7.05;;;12.50;99.90;;;;;;5008117;28;20470;-82
2021/09/03 03:22:45;;;;;;;8.48;7.10;;;12.30;99.90;;;;;;5006844;28;20193;-82
2021/09/03 03:25:11;;;;;;;7.63;6.80;;;12.40;99.90;;;;;;5004090;28;20187;-82
2021/09/03 03:27:36;;;;;;;7.77;6.97;;;12.60;99.90;;;;;;5001064;28;20191;-82
2021/09/03 03:30:03;;;;;;;8.47;7.60;;;12.20;99.90;;;;;;5008216;28;20973;-82
2021/09/03 03:32:28;;;;;;;8.93;7.95;;;12.70;99.90;;;;;;5008862;28;20205;-82
2021/09/03 03:34:54;;;;;;;9.10;7.67;;;12.10;99.90;;;;;;5007284;28;20539;-81
2021/09/03 03:37:19;;;;;;;8.63;7.73;;;12.00;99.90;;;;;;5018054;28;20713;-82
2021/09/03 03:39:45;;;;;;;8.57;7.17;;;12.50;99.90;;;;;;5006599;28;20197;-82
2021/09/03 03:42:10;;;;;;;10.30;8.00;;;12.10;99.90;;;;;;5009255;28;20229;-82
2021/09/03 03:44:36;;;;;;;8.33;7.50;;;12.00;99.90;;;;;;5008653;28;20216;-82
2021/09/03 03:47:02;;;;;;;9.40;7.60;;;12.20;99.90;;;;;;5014133;28;20218;-82
2021/09/03 03:49:27;;;;;;;7.50;6.80;;;12.40;99.90;;;;;;5010705;28;20232;-82
2021/09/03 03:51:53;;;;;;;9.27;7.30;;;12.40;99.90;;;;;;5009694;28;20185;-82
2021/09/03 03:54:18;;;;;;;10.50;7.00;;;12.40;99.90;;;;;;5008133;28;20233;-82
2021/09/03 03:56:44;;;;;;;8.10;7.30;;;12.10;99.90;;;;;;5004991;28;20239;-82
2021/09/03 03:59:09;;;;;;;9.13;7.60;;;12.20;99.90;;;;;;5005296;28;20523;-82
2021/09/03 04:01:35;;;;;;;8.57;7.40;;;11.90;99.90;;;;;;5008282;28;20203;-82
2021/09/03 04:04:01;;;;;;;8.00;7.20;;;11.90;99.90;;;;;;5007270;28;20274;-82
2021/09/03 04:06:27;;;;;;;7.80;7.10;;;12.00;99.90;;;;;;5007745;28;20187;-82
2021/09/03 04:08:52;;;;;;;9.87;7.93;;;12.30;99.90;;;;;;5005934;28;20442;-82
2021/09/03 04:11:18;;;;;;;7.57;6.87;;;12.30;99.90;;;;;;5002988;28;20218;-83
2021/09/03 04:13:43;;;;;;;8.10;7.30;;;11.90;99.90;;;;;;4999617;28;20182;-82
2021/09/03 04:16:09;;;;;;;15.10;11.03;;;12.30;99.90;;;;;;5008031;28;20188;-82
2021/09/03 04:18:35;;;;;;;10.37;8.20;;;11.80;99.90;;;;;;5004462;28;20271;-82
2021/09/03 04:21:00;;;;;;;8.80;7.80;;;12.10;99.90;;;;;;5013514;28;20621;-82
2021/09/03 04:23:26;;;;;;;8.50;7.07;;;12.30;99.90;;;;;;5007846;28;20196;-82
2021/09/03 04:25:51;;;;;;;8.20;6.90;;;12.10;99.90;;;;;;4999908;28;20185;-81
2021/09/03 04:28:17;;;;;;;10.40;8.07;;;12.30;99.90;;;;;;5005969;28;20724;-81
2021/09/03 04:30:43;;;;;;;8.53;6.93;;;11.90;99.90;;;;;;5006827;28;20206;-82
2021/09/03 04:33:08;;;;;;;7.63;6.93;;;12.20;99.90;;;;;;5007954;28;20209;-82
2021/09/03 04:35:34;;;;;;;7.53;6.77;;;12.70;99.90;;;;;;5005760;28;20683;-81
2021/09/03 04:37:59;;;;;;;7.53;6.60;;;12.20;99.90;;;;;;5002493;28;20175;-81
2021/09/03 04:40:25;;;;;;;8.80;7.90;;;12.00;99.90;;;;;;5005888;28;20217;-81
2021/09/03 04:42:51;;;;;;;9.13;7.30;;;11.90;99.90;;;;;;5003906;28;20188;-81
2021/09/03 04:45:17;;;;;;;10.30;6.97;;;11.70;99.90;;;;;;5004541;28;20504;-82
2021/09/03 04:47:43;;;;;;;9.25;7.85;;;12.20;99.90;;;;;;5008528;28;20184;-82
2021/09/03 04:50:11;;;;;;;9.13;8.20;;;12.30;99.90;;;;;;5005969;28;20687;-81
2021/09/03 04:52:36;;;;;;;10.70;8.13;;;12.00;99.90;;;;;;5010414;28;20455;-82
2021/09/03 04:55:02;;;;;;;9.07;8.03;;;12.20;99.90;;;;;;5010884;28;20677;-81
2021/09/03 04:57:28;;;;;;;8.35;7.55;;;12.20;99.90;;;;;;5010014;28;20197;-82
2021/09/03 04:59:53;;;;;;;8.83;7.20;;;11.80;99.90;;;;;;5009174;28;20193;-82
2021/09/03 05:02:19;;;;;;;8.03;7.23;;;12.10;99.90;;;;;;5013309;28;20294;-81
2021/09/03 05:04:44;;;;;;;9.97;7.60;;;12.10;99.90;;;;;;5010489;28;20676;-81
2021/09/03 05:07:10;;;;;;;8.70;7.73;;;12.10;99.90;;;;;;5011150;28;20193;-82
2021/09/03 05:09:36;;;;;;;8.40;7.40;;;12.10;99.90;;;;;;5011321;28;20202;-81
2021/09/03 05:12:02;;;;;;;9.73;7.33;;;12.10;99.90;;;;;;5009485;28;20268;-82
2021/09/03 05:14:27;;;;;;;9.50;7.90;;;12.10;99.90;;;;;;5011580;28;20276;-81
2021/09/03 05:16:53;;;;;;;9.27;8.33;;;11.60;99.90;;;;;;5012322;28;20800;-82
2021/09/03 05:19:18;;;;;;;7.60;6.83;;;11.70;99.90;;;;;;5012593;28;20191;-81
2021/09/03 05:21:44;;;;;;;8.83;7.90;;;11.80;99.90;;;;;;5010363;28;20562;-82
2021/09/03 05:24:10;;;;;;;9.20;7.70;;;12.00;99.90;;;;;;5014391;28;20184;-82
2021/09/03 05:26:35;;;;;;;14.93;8.33;;;12.10;99.90;;;;;;5013743;28;20264;-81
2021/09/03 05:29:01;;;;;;;8.80;7.83;;;11.70;99.90;;;;;;5013323;28;20311;-82
2021/09/03 05:31:26;;;;;;;8.07;7.27;;;11.90;99.90;;;;;;5015990;28;20240;-81
2021/09/03 05:33:52;;;;;;;12.47;8.70;;;11.80;99.90;;;;;;5017169;28;20197;-82
2021/09/03 05:36:17;;;;;;;8.83;8.03;;;12.10;99.90;;;;;;5003099;28;20276;-81
2021/09/03 05:38:43;;;;;;;8.60;7.70;;;12.50;99.90;;;;;;5013766;28;20197;-81
2021/09/03 05:41:08;;;;;;;8.70;7.63;;;12.20;99.90;;;;;;5008140;28;20256;-82
2021/09/03 05:43:34;;;;;;;8.20;7.40;;;12.30;99.90;;;;;;5004929;28;20185;-81
2021/09/03 05:45:59;;;;;;;9.00;7.67;;;12.10;99.90;;;;;;5007860;28;20229;-82
2021/09/03 05:48:25;;;;;;;12.87;7.40;;;12.40;99.90;;;;;;5007198;28;20193;-81
2021/09/03 05:50:50;;;;;;;9.33;8.43;;;12.20;99.90;;;;;;5004966;28;20277;-81
2021/09/03 05:53:16;;;;;;;8.60;7.57;;;12.20;99.90;;;;;;5009971;28;20728;-86
2021/09/03 05:55:42;;;;;;;9.57;8.07;;;12.10;99.90;;;;;;5008903;28;20188;-87
2021/09/03 05:58:08;;;;;;;8.67;7.83;;;12.20;99.90;;;;;;5005989;28;20439;-87
2021/09/03 06:00:34;;;;;;;9.03;8.13;;;12.40;99.90;;;;;;5009410;28;20275;-80
2021/09/03 06:02:59;;;;;;;10.30;8.33;;;12.50;99.90;;;;;;5003664;28;20430;-81
2021/09/03 06:05:25;;;;;;;8.57;7.77;;;12.60;99.90;;;;;;5017639;28;20430;-83
2021/09/03 06:07:51;;;;;;;8.93;8.02;;;12.70;99.90;;;;;;5016311;28;20178;-83
2021/09/03 06:10:17;;;;;;;10.40;8.53;;;13.00;99.90;;;;;;5013828;28;20744;-83
2021/09/03 06:12:42;;;;;;;9.60;8.40;;;13.40;99.90;;;;;;5009119;28;20179;-82
2021/09/03 06:15:09;;;;;;;11.57;9.70;;;13.10;99.90;;;;;;5006621;28;20437;-83
2021/09/03 06:17:35;;;;;;;11.07;9.40;;;13.10;99.90;;;;;;5011544;28;20209;-86
2021/09/03 06:20:06;;;;;;;9.63;8.35;;;13.30;99.90;;;;;;5005473;28;20215;-85
2021/09/03 06:22:31;;;;;;;12.60;10.82;;;13.30;99.90;;;;;;5014483;28;20595;-82
2021/09/03 06:24:57;;;;;;;11.80;9.33;;;13.40;99.90;;;;;;5007467;28;20270;-83
2021/09/03 06:27:23;;;;;;;13.47;9.57;;;13.60;99.90;;;;;;5005536;28;20254;-83
2021/09/03 06:29:48;;;;;;;12.38;10.00;;;13.80;99.90;;;;;;5003027;28;20281;-81
2021/09/03 06:32:17;;;;;;;10.70;9.60;;;13.50;99.90;;;;;;5014459;28;20639;-83
2021/09/03 06:34:45;;;;;;;10.27;9.20;;;13.50;99.90;;;;;;5015733;28;20241;-82
2021/09/03 06:37:10;;;;;;;13.30;9.43;;;13.40;99.90;;;;;;5016791;28;20191;-83
2021/09/03 06:39:36;;;;;;;10.80;8.73;;;14.00;99.90;;;;;;5011856;28;20291;-82
2021/09/03 06:42:04;;;;;;;13.60;9.70;;;14.00;99.90;;;;;;5015470;28;20199;-84
2021/09/03 06:44:30;;;;;;;13.18;10.50;;;14.30;99.90;;;;;;5012003;28;20434;-84
2021/09/03 06:46:56;;;;;;;13.32;9.65;;;14.40;99.90;;;;;;5013183;28;20170;-82
2021/09/03 06:49:21;;;;;;;11.73;10.00;;;14.60;99.90;;;;;;5013706;28;20187;-83
2021/09/03 06:51:47;;;;;;;10.87;9.77;;;14.20;99.90;;;;;;4996924;28;20254;-84
2021/09/03 06:54:13;;;;;;;12.50;9.73;;;14.50;99.90;;;;;;5010856;28;20659;-84
2021/09/03 06:56:39;;;;;;;12.10;8.80;;;14.60;99.90;;;;;;5012815;28;20441;-83
2021/09/03 06:59:04;;;;;;;11.60;9.30;;;15.50;99.90;;;;;;5009434;28;20202;-83
2021/09/03 07:01:30;;;;;;;11.20;8.80;;;16.00;99.90;;;;;;5014208;28;20216;-83
2021/09/03 07:03:56;;;;;;;8.10;7.30;;;18.10;99.90;;;;;;4998120;28;20186;-84
2021/09/03 07:06:21;;;;;;;9.50;8.50;;;20.50;99.90;;;;;;5005874;28;21682;-83
2021/09/03 07:08:47;;;;;;;8.77;7.87;;;22.80;97.00;;;;;;5006346;28;20192;-84
2021/09/03 07:11:12;;;;;;;9.77;8.80;;;25.10;92.90;;;;;;4996109;28;20231;-84
2021/09/03 07:13:38;;;;;;;8.63;7.83;;;27.20;85.00;;;;;;5003588;28;20642;-85
2021/09/03 07:16:04;;;;;;;8.93;8.13;;;27.70;77.80;;;;;;5008349;28;20830;-85
2021/09/03 07:18:30;;;;;;;9.47;8.47;;;27.50;73.60;;;;;;5008588;28;20655;-85
2021/09/03 07:20:56;;;;;;;8.93;8.13;;;27.60;74.20;;;;;;5008248;28;20481;-84
2021/09/03 07:23:22;;;;;;;7.73;7.03;;;28.90;70.50;;;;;;5008355;28;20181;-84
2021/09/03 07:25:47;;;;;;;7.33;6.63;;;30.50;65.40;;;;;;5009035;28;20815;-85
2021/09/03 07:28:13;;;;;;;9.37;8.57;;;31.60;59.20;;;;;;5000346;28;20654;-85
2021/09/03 07:30:38;;;;;;;6.80;6.30;;;32.20;58.00;;;;;;5009786;28;20501;-83
2021/09/03 07:33:04;;;;;;;6.87;6.27;;;32.30;55.80;;;;;;5008978;28;20213;-85
2021/09/03 07:35:29;;;;;;;7.27;6.77;;;32.50;54.00;;;;;;5003791;28;20186;-83
2021/09/03 07:37:56;;;;;;;7.83;7.13;;;32.10;53.70;;;;;;5023220;28;20281;-84
2021/09/03 07:40:22;;;;;;;7.23;6.60;;;32.90;54.00;;;;;;5004478;28;20679;-84
2021/09/03 07:42:47;;;;;;;6.63;6.03;;;32.70;52.00;;;;;;5001736;28;20446;-81
2021/09/03 07:45:13;;;;;;;7.10;6.50;;;32.80;52.00;;;;;;4997181;28;20195;-81
2021/09/03 07:47:39;;;;;;;7.67;6.97;;;32.60;52.30;;;;;;5008385;28;20257;-82
2021/09/03 07:50:05;;;;;;;7.20;6.60;;;31.90;52.60;;;;;;5007982;28;20202;-82
2021/09/03 07:52:31;;;;;;;6.73;6.20;;;32.00;52.80;;;;;;5009169;28;20191;-82
2021/09/03 07:54:56;;;;;;;7.20;6.60;;;32.40;52.50;;;;;;5006381;28;20472;-82
2021/09/03 07:57:22;;;;;;;7.57;6.97;;;32.80;51.30;;;;;;4999675;28;20238;-82
2021/09/03 07:59:47;;;;;;;7.73;7.13;;;32.90;50.80;;;;;;5007732;28;20226;-82
2021/09/03 08:02:13;;;;;;;6.57;6.07;;;33.10;50.10;;;;;;5010028;28;20210;-82
2021/09/03 08:04:38;;;;;;;7.40;6.67;;;33.40;49.80;;;;;;5010035;28;20183;-81
2021/09/03 08:07:04;;;;;;;7.37;6.60;;;34.10;48.30;;;;;;5003066;28;20198;-82
2021/09/03 08:09:29;;;;;;;7.53;6.93;;;34.50;48.50;;;;;;4996209;28;20215;-81
2021/09/03 08:11:55;;;;;;;8.50;6.70;;;35.50;47.10;;;;;;4999699;28;20186;-83
2021/09/03 08:14:21;;;;;;;7.50;6.77;;;35.80;46.20;;;;;;5007773;28;20187;-84
2021/09/03 08:16:46;;;;;;;7.40;6.80;;;36.40;45.50;;;;;;5008001;28;20191;-83
2021/09/03 08:19:12;;;;;;;7.53;6.93;;;36.80;44.70;;;;;;5005903;28;20651;-84
2021/09/03 08:21:37;;;;;;;7.27;6.67;;;36.60;44.40;;;;;;5006574;28;20544;-83
2021/09/03 08:24:04;;;;;;;7.67;7.07;;;37.20;43.30;;;;;;5010211;28;20293;-84
2021/09/03 08:26:30;;;;;;;8.10;7.40;;;36.70;43.60;;;;;;5010915;28;20195;-82
2021/09/03 08:28:55;;;;;;;8.33;7.67;;;36.90;43.70;;;;;;5003799;28;20444;-82
2021/09/03 08:31:22;;;;;;;7.40;6.80;;;36.40;43.40;;;;;;5007801;28;20488;-83
2021/09/03 08:33:48;;;;;;;7.47;6.87;;;36.00;43.60;;;;;;5011143;28;20202;-84
2021/09/03 08:36:15;;;;;;;6.80;6.30;;;34.50;44.90;;;;;;5007876;28;20820;-84
2021/09/03 08:38:40;;;;;;;6.53;5.93;;;33.20;47.80;;;;;;5006307;28;20187;-84
2021/09/03 08:41:06;;;;;;;7.40;6.30;;;34.50;47.00;;;;;;5009319;28;20481;-85
2021/09/03 08:43:32;;;;;;;6.43;5.93;;;33.60;47.20;;;;;;5023658;28;20282;-85
2021/09/03 08:45:57;;;;;;;10.03;7.73;;;33.30;48.50;;;;;;5011736;28;20226;-84
2021/09/03 08:48:24;;;;;;;6.63;6.13;;;33.70;48.20;;;;;;5011051;28;20186;-86
2021/09/03 08:50:53;;;;;;;6.77;6.17;;;34.60;47.00;;;;;;5013476;28;20669;-85
2021/09/03 08:53:22;;;;;;;7.43;6.80;;;34.60;46.10;;;;;;5030951;28;20814;-86
2021/09/03 08:55:50;;;;;;;7.13;6.43;;;35.00;46.50;;;;;;5011197;28;20816;-84
2021/09/03 08:58:16;;;;;;;6.23;5.73;;;34.40;46.10;;;;;;4999034;28;20815;-83
2021/09/03 09:00:44;;;;;;;7.07;6.47;;;32.90;48.80;;;;;;5021614;28;20470;-83
2021/09/03 09:03:15;;;;;;;7.10;6.50;;;31.50;51.00;;;;;;5011304;28;20442;-82
2021/09/03 09:05:48;;;;;;;7.43;6.83;;;30.00;53.70;;;;;;5015888;28;20492;-83
2021/09/03 09:08:14;;;;;;;8.20;7.50;;;28.70;55.20;;;;;;5007662;28;20449;-82
2021/09/03 09:10:55;;;;;;;7.63;6.83;;;28.60;56.90;;;;;;5009920;28;20567;-83
2021/09/03 09:13:37;;;;;;;7.30;6.60;;;28.30;57.30;;;;;;5019425;28;20703;-83
2021/09/03 09:16:08;;;;;;;7.70;7.00;;;27.50;58.80;;;;;;5008089;28;20454;-85
2021/09/03 09:18:41;;;;;;;8.50;7.60;;;26.80;60.90;;;;;;5007767;28;20460;-84
2021/09/03 09:21:19;;;;;;;6.83;6.33;;;25.70;63.50;;;;;;5024349;28;20498;-84
2021/09/03 09:23:58;;;;;;;8.90;7.10;;;25.40;67.20;;;;;;5013912;28;20545;-82
2021/09/03 09:26:34;;;;;;;8.30;6.90;;;24.70;69.10;;;;;;5017719;28;20957;-82
2021/09/03 09:29:15;;;;;;;8.13;6.17;;;24.20;71.30;;;;;;5011602;28;20423;-83
2021/09/03 09:31:41;;;;;;;6.90;6.30;;;24.00;73.50;;;;;;5024395;28;20543;-83
2021/09/03 09:34:15;;;;;;;7.90;6.77;;;23.70;73.50;;;;;;5027328;28;20526;-84
2021/09/03 09:36:41;;;;;;;9.83;8.10;;;23.40;74.80;;;;;;5021717;28;20541;-83
2021/09/03 09:39:08;;;;;;;7.63;6.83;;;23.30;75.90;;;;;;5029706;28;20436;-82
2021/09/03 09:41:33;;;;;;;7.00;6.40;;;23.40;76.50;;;;;;5017263;28;20471;-82
2021/09/03 09:43:59;;;;;;;7.00;6.40;;;23.70;75.40;;;;;;5027790;28;20469;-84
2021/09/03 09:46:26;;;;;;;8.00;7.20;;;24.80;73.60;;;;;;5022252;28;20178;-82
2021/09/03 09:49:18;;;;;;;7.03;6.33;;;25.30;71.20;;;;;;5019781;28;20198;-82
2021/09/03 09:51:48;;;;;;;6.93;6.23;;;25.20;70.30;;;;;;5019876;28;20453;-84
2021/09/03 09:54:18;;;;;;;7.87;7.10;;;25.40;71.50;;;;;;5022416;28;20492;-82
2021/09/03 09:56:58;;;;;;;8.00;7.17;;;24.80;73.50;;;;;;5024250;28;20474;-82
2021/09/03 09:59:26;;;;;;;7.43;6.73;;;24.60;72.80;;;;;;5025078;28;20445;-84
2021/09/03 10:01:54;;;;;;;7.63;6.93;;;24.30;73.60;;;;;;5020524;28;20474;-82
2021/09/03 10:04:22;;;;;;;6.63;6.13;;;24.00;75.00;;;;;;5017588;28;20513;-84
2021/09/03 10:06:50;;;;;;;7.90;7.20;;;24.00;75.90;;;;;;5025710;28;20434;-82
2021/09/03 10:09:19;;;;;;;7.10;6.40;;;23.80;76.40;;;;;;5025962;28;20441;-83
2021/09/03 10:11:47;;;;;;;7.70;7.00;;;23.80;77.90;;;;;;5006832;28;20509;-85
2021/09/03 10:14:16;;;;;;;6.60;6.00;;;23.70;78.30;;;;;;5008493;28;20504;-78
2021/09/03 10:16:42;;;;;;;7.40;6.70;;;23.70;79.10;;;;;;5022261;28;20445;-82
2021/09/03 10:19:08;;;;;;;7.73;6.80;;;23.70;78.30;;;;;;5000500;28;20450;-81
2021/09/03 10:21:37;;;;;;;7.10;6.40;;;23.80;79.40;;;;;;5005866;28;20469;-82
2021/09/03 10:24:15;;;;;;;7.20;6.60;;;23.70;79.10;;;;;;5010201;28;20442;-82
2021/09/03 10:26:46;;;;;;;7.87;6.50;;;23.70;79.10;;;;;;5011862;28;20447;-81
2021/09/03 10:29:33;;;;;;;7.77;6.97;;;24.00;80.20;;;;;;5006953;28;20443;-80
2021/09/03 10:32:07;;;;;;;7.17;6.47;;;23.50;80.80;;;;;;5002179;28;20441;-79
2021/09/03 10:34:39;;;;;;;7.60;6.90;;;23.90;80.30;;;;;;5012392;28;20490;-83
2021/09/03 10:37:18;;;;;;;7.43;6.47;;;24.20;79.40;;;;;;5000576;28;20444;-80
2021/09/03 10:40:03;;;;;;;7.70;7.00;;;24.30;78.90;;;;;;5014294;28;20996;-81
2021/09/03 10:42:39;;;;;;;6.57;5.93;;;24.10;79.10;;;;;;5010217;28;20825;-86
2021/09/03 10:45:10;;;;;;;6.90;6.30;;;23.80;80.70;;;;;;5005374;28;20648;-85
2021/09/03 10:47:40;;;;;;;7.80;7.00;;;23.90;81.40;;;;;;5007450;28;20532;-79
2021/09/03 10:50:20;;;;;;;8.07;7.27;;;23.90;79.90;;;;;;5013641;28;20547;-79
2021/09/03 10:53:07;;;;;;;6.47;5.87;;;23.60;81.70;;;;;;5009909;28;20487;-79
2021/09/03 10:55:55;;;;;;;8.00;6.23;;;23.50;82.30;;;;;;5012305;28;20897;-79
2021/09/03 10:58:37;;;;;;;7.77;7.07;;;23.60;82.00;;;;;;5005783;28;20457;-79
2021/09/03 11:01:09;;;;;;;7.63;6.97;;;23.60;81.90;;;;;;5003839;28;20977;-79
2021/09/03 11:03:36;;;;;;;7.20;6.50;;;23.70;82.80;;;;;;5008259;28;20802;-79
2021/09/03 11:06:02;;;;;;;9.23;5.97;;;23.70;83.40;;;;;;5006311;28;20442;-79
2021/09/03 11:08:38;;;;;;;7.10;6.50;;;23.90;82.30;;;;;;5006476;28;20524;-79
2021/09/03 11:11:27;;;;;;;6.53;5.93;;;24.10;80.90;;;;;;5007839;28;20477;-79
2021/09/03 11:14:13;;;;;;;7.03;6.43;;;24.30;80.70;;;;;;5001795;28;20817;-79
2021/09/03 11:16:54;;;;;;;7.10;6.50;;;24.50;80.40;;;;;;5013057;28;20824;-79
2021/09/03 11:19:24;;;;;;;8.63;7.40;;;24.60;79.30;;;;;;5006416;28;20446;-79
2021/09/03 11:21:58;;;;;;;6.50;6.00;;;24.60;79.80;;;;;;5010690;28;20485;-79
2021/09/03 11:24:34;;;;;;;6.50;5.97;;;24.50;79.10;;;;;;5009394;28;20444;-81
2021/09/03 11:27:04;;;;;;;7.60;6.90;;;24.60;78.90;;;;;;5001103;28;20739;-80
2021/09/03 11:29:47;;;;;;;7.27;6.67;;;24.50;79.40;;;;;;5003569;28;20465;-82
2021/09/03 11:32:20;;;;;;;6.73;6.13;;;24.60;79.30;;;;;;5001791;28;21023;-81
2021/09/03 11:35:00;;;;;;;7.33;6.77;;;24.80;79.70;;;;;;5005762;28;20453;-82
2021/09/03 11:37:42;;;;;;;7.10;6.37;;;24.90;78.10;;;;;;5004488;28;20446;-81
2021/09/03 11:40:31;;;;;;;7.13;6.40;;;25.00;77.60;;;;;;5008318;28;20549;-80
2021/09/03 11:42:58;;;;;;;6.97;6.37;;;24.90;78.00;;;;;;5005526;28;20451;-81
2021/09/03 11:45:31;;;;;;;6.13;5.63;;;24.80;77.40;;;;;;5005437;28;20808;-81
2021/09/03 11:48:01;;;;;;;7.07;6.47;;;24.90;78.00;;;;;;5017342;28;20829;-80
2021/09/03 11:50:33;;;;;;;7.17;6.37;;;24.90;76.80;;;;;;5011656;28;20457;-80
2021/09/03 11:53:01;;;;;;;6.50;5.80;;;25.00;76.70;;;;;;5011082;28;20918;-80
2021/09/03 11:55:41;;;;;;;6.70;6.10;;;25.50;76.80;;;;;;5006614;28;20440;-80
2021/09/03 11:58:12;;;;;;;6.60;6.00;;;25.50;75.70;;;;;;5012241;28;20472;-80
2021/09/03 12:00:48;;;;;;;7.20;6.47;;;25.80;73.80;;;;;;5012205;28;20460;-79
2021/09/03 12:03:16;;;;;;;6.03;5.23;;;26.10;74.30;;;;;;5008092;28;20437;-79
2021/09/03 12:05:52;;;;;;;7.30;6.70;;;26.20;72.40;;;;;;5010084;28;20440;-79
2021/09/03 12:08:26;;;;;;;6.10;5.60;;;26.20;73.10;;;;;;5009396;28;20803;-81
2021/09/03 12:10:56;;;;;;;7.30;6.60;;;26.10;73.90;;;;;;5004978;28;20896;-81
2021/09/03 12:13:27;;;;;;;6.73;6.13;;;26.10;73.90;;;;;;5009921;28;20443;-80
2021/09/03 12:16:05;;;;;;;7.10;6.40;;;25.90;74.20;;;;;;5013460;28;20463;-80
2021/09/03 12:18:36;;;;;;;7.60;6.20;;;25.80;74.20;;;;;;5008037;28;20439;-80
2021/09/03 12:21:04;;;;;;;6.90;6.30;;;25.70;75.50;;;;;;5002229;28;20828;-81
2021/09/03 12:23:48;;;;;;;6.90;6.30;;;25.70;74.20;;;;;;5013990;28;20803;-81
2021/09/03 12:26:24;;;;;;;7.53;5.70;;;25.70;74.10;;;;;;5013330;28;20519;-80
2021/09/03 12:28:55;;;;;;;7.00;6.40;;;25.70;74.10;;;;;;5006828;28;20433;-81
2021/09/03 12:31:26;;;;;;;6.97;6.37;;;25.80;75.10;;;;;;5014687;28;20514;-79
2021/09/03 12:34:03;;;;;;;6.93;6.30;;;25.80;72.90;;;;;;4998389;28;20521;-80
2021/09/03 12:36:31;;;;;;;6.30;5.80;;;25.70;73.70;;;;;;5013395;28;20435;-80
2021/09/03 12:38:59;;;;;;;6.23;5.70;;;25.90;73.10;;;;;;5013240;28;20482;-79
2021/09/03 12:41:32;;;;;;;7.07;6.13;;;25.70;73.30;;;;;;5014298;28;20469;-79
2021/09/03 12:44:04;;;;;;;5.80;5.30;;;25.70;74.90;;;;;;5006997;28;20452;-80
2021/09/03 12:46:34;;;;;;;8.03;6.17;;;25.80;75.30;;;;;;5005224;28;20438;-79
2021/09/03 12:49:02;;;;;;;6.63;6.03;;;25.80;73.50;;;;;;5003830;28;20444;-77